createdAt,value
2017-08-20T00:00:24.829Z,16.06
2017-08-20T00:01:24.824Z,16.01
2017-08-20T00:02:24.818Z,15.89
2017-08-20T00:03:24.812Z,15.89
2017-08-20T00:04:24.797Z,15.96
2017-08-20T00:05:24.791Z,15.88
2017-08-20T00:06:24.784Z,15.95
2017-08-20T00:07:24.775Z,15.91
2017-08-20T00:08:24.765Z,15.89
2017-08-20T00:09:24.760Z,15.86
2017-08-20T00:10:24.752Z,15.89
2017-08-20T00:11:24.748Z,15.85
2017-08-20T00:12:24.743Z,15.85
2017-08-20T00:13:24.735Z,15.93
2017-08-20T00:14:24.730Z,15.99
2017-08-20T00:15:24.721Z,15.91
2017-08-20T00:16:24.716Z,15.93
2017-08-20T00:17:24.706Z,15.93
2017-08-20T00:18:24.700Z,15.93
2017-08-20T00:19:24.696Z,15.98
2017-08-20T00:20:24.679Z,15.95
2017-08-20T00:21:24.674Z,15.92
2017-08-20T00:22:24.667Z,15.98
2017-08-20T00:23:24.660Z,15.98
2017-08-20T00:24:24.650Z,15.98
2017-08-20T00:25:24.645Z,15.93
2017-08-20T00:26:24.636Z,16.08
2017-08-20T00:27:24.631Z,16.08
2017-08-20T00:28:24.628Z,16.03
2017-08-20T00:29:24.619Z,15.96
2017-08-20T00:30:24.614Z,15.95
2017-08-20T00:31:24.605Z,15.96
2017-08-20T00:32:24.598Z,15.93
2017-08-20T00:33:24.589Z,15.96
2017-08-20T00:34:24.585Z,15.92
2017-08-20T00:35:24.574Z,15.88
2017-08-20T00:36:24.563Z,15.92
2017-08-20T00:37:24.558Z,15.96
2017-08-20T00:38:24.550Z,15.96
2017-08-20T00:39:24.544Z,15.89
2017-08-20T00:40:24.537Z,15.89
2017-08-20T00:41:24.527Z,15.86
2017-08-20T00:42:24.521Z,15.77
2017-08-20T00:43:24.514Z,15.74
2017-08-20T00:44:24.510Z,15.58
2017-08-20T00:45:24.503Z,15.56
2017-08-20T00:46:24.495Z,15.52
2017-08-20T00:47:24.489Z,15.49
2017-08-20T00:48:24.481Z,15.44
2017-08-20T00:49:24.475Z,15.43
2017-08-20T00:50:24.467Z,15.40
2017-08-20T00:51:24.460Z,15.46
2017-08-20T00:52:24.449Z,15.46
2017-08-20T00:53:24.439Z,15.43
2017-08-20T00:54:24.435Z,15.52
2017-08-20T00:55:24.424Z,15.51
2017-08-20T00:56:24.418Z,15.49
2017-08-20T00:57:24.412Z,15.55
2017-08-20T00:58:24.403Z,15.55
2017-08-20T00:59:24.398Z,15.64
2017-08-20T01:00:24.394Z,15.59
2017-08-20T01:01:24.385Z,15.55
2017-08-20T01:02:24.380Z,15.56
2017-08-20T01:03:24.371Z,15.67
2017-08-20T01:04:24.365Z,15.60
2017-08-20T01:05:24.356Z,15.56
2017-08-20T01:06:24.351Z,15.68
2017-08-20T01:07:24.341Z,15.62
2017-08-20T01:08:24.328Z,15.70
2017-08-20T01:09:24.323Z,15.70
2017-08-20T01:10:24.314Z,15.66
2017-08-20T01:11:24.309Z,15.60
2017-08-20T01:12:24.300Z,15.66
2017-08-20T01:13:24.292Z,15.68
2017-08-20T01:14:24.287Z,15.59
2017-08-20T01:15:24.278Z,15.60
2017-08-20T01:16:24.273Z,15.64
2017-08-20T01:17:24.269Z,15.70
2017-08-20T01:18:24.259Z,15.56
2017-08-20T01:19:24.254Z,15.60
2017-08-20T01:20:24.244Z,15.59
2017-08-20T01:21:24.239Z,15.66
2017-08-20T01:22:24.228Z,15.70
2017-08-20T01:23:24.225Z,15.73
2017-08-20T01:24:24.211Z,15.77
2017-08-20T01:25:24.208Z,15.77
2017-08-20T01:26:24.204Z,15.84
2017-08-20T01:27:24.188Z,15.80
2017-08-20T01:28:24.184Z,15.81
2017-08-20T01:29:24.179Z,15.74
2017-08-20T01:30:24.172Z,15.74
2017-08-20T01:31:24.165Z,15.78
2017-08-20T01:32:24.153Z,15.85
2017-08-20T01:33:24.144Z,15.86
2017-08-20T01:34:24.144Z,15.95
2017-08-20T01:35:24.130Z,16.03
2017-08-20T01:36:24.124Z,15.93
2017-08-20T01:37:24.115Z,15.93
2017-08-20T01:38:24.109Z,15.92
2017-08-20T01:39:24.100Z,15.93
2017-08-20T01:40:24.097Z,16.01
2017-08-20T01:41:24.091Z,15.93
2017-08-20T01:42:24.083Z,15.96
2017-08-20T01:43:24.076Z,16.03
2017-08-20T01:44:24.069Z,15.98
2017-08-20T01:45:24.059Z,15.98
2017-08-20T01:46:24.055Z,16.01
2017-08-20T01:47:24.046Z,16.06
2017-08-20T01:48:24.035Z,16.04
2017-08-20T01:49:24.028Z,16.01
2017-08-20T01:50:24.021Z,16.04
2017-08-20T01:51:24.014Z,15.99
2017-08-20T01:52:24.005Z,16.10
2017-08-20T01:53:23.999Z,16.06
2017-08-20T01:54:23.991Z,16.04
2017-08-20T01:55:23.986Z,16.04
2017-08-20T01:56:23.983Z,16.06
2017-08-20T01:57:23.972Z,15.99
2017-08-20T01:58:23.969Z,16.03
2017-08-20T01:59:23.958Z,16.04
2017-08-20T02:00:23.952Z,16.04
2017-08-20T02:01:23.946Z,15.89
2017-08-20T02:02:23.937Z,15.88
2017-08-20T02:03:23.932Z,15.88
2017-08-20T02:04:23.921Z,15.77
2017-08-20T02:05:23.912Z,15.77
2017-08-20T02:06:23.906Z,15.62
2017-08-20T02:07:23.897Z,15.58
2017-08-20T02:08:23.892Z,15.49
2017-08-20T02:09:23.882Z,15.56
2017-08-20T02:10:23.878Z,15.40
2017-08-20T02:11:23.869Z,15.44
2017-08-20T02:12:23.866Z,15.33
2017-08-20T02:13:23.868Z,15.38
2017-08-20T02:14:23.851Z,15.38
2017-08-20T02:15:23.846Z,15.33
2017-08-20T02:16:23.839Z,15.33
2017-08-20T02:17:23.829Z,15.44
2017-08-20T02:18:23.826Z,15.43
2017-08-20T02:19:23.813Z,15.34
2017-08-20T02:20:23.803Z,15.33
2017-08-20T02:21:23.799Z,15.35
2017-08-20T02:22:23.787Z,15.23
2017-08-20T02:23:23.783Z,15.13
2017-08-20T02:24:23.773Z,15.07
2017-08-20T02:25:23.768Z,15.00
2017-08-20T02:26:23.759Z,14.94
2017-08-20T02:27:23.753Z,14.91
2017-08-20T02:28:23.750Z,14.78
2017-08-20T02:29:23.740Z,14.75
2017-08-20T02:30:23.735Z,14.66
2017-08-20T02:31:23.726Z,14.74
2017-08-20T02:32:23.714Z,14.64
2017-08-20T02:33:23.708Z,14.60
2017-08-20T02:34:23.699Z,14.61
2017-08-20T02:35:23.693Z,14.63
2017-08-20T02:36:23.690Z,14.59
2017-08-20T02:37:23.680Z,14.60
2017-08-20T02:38:23.674Z,14.53
2017-08-20T02:39:23.664Z,14.59
2017-08-20T02:40:23.659Z,14.46
2017-08-20T02:41:23.649Z,14.44
2017-08-20T02:42:23.644Z,14.49
2017-08-20T02:43:23.632Z,14.41
2017-08-20T02:44:23.622Z,14.44
2017-08-20T02:45:23.616Z,14.46
2017-08-20T02:46:23.613Z,14.46
2017-08-20T02:47:23.601Z,14.45
2017-08-20T02:48:23.596Z,14.46
2017-08-20T02:49:23.583Z,14.54
2017-08-20T02:50:23.577Z,14.49
2017-08-20T02:51:23.568Z,14.63
2017-08-20T02:52:23.564Z,14.54
2017-08-20T02:53:23.557Z,14.71
2017-08-20T02:54:23.550Z,14.66
2017-08-20T02:55:23.542Z,14.72
2017-08-20T02:56:23.530Z,14.75
2017-08-20T02:57:23.526Z,14.72
2017-08-20T02:58:23.516Z,14.74
2017-08-20T02:59:23.509Z,14.69
2017-08-20T03:00:23.497Z,14.69
2017-08-20T03:01:23.489Z,14.78
2017-08-20T03:02:23.483Z,14.72
2017-08-20T03:03:23.473Z,14.71
2017-08-20T03:04:23.464Z,14.67
2017-08-20T03:05:23.464Z,14.63
2017-08-20T03:06:23.448Z,14.48
2017-08-20T03:07:23.444Z,14.59
2017-08-20T03:08:23.439Z,14.52
2017-08-20T03:09:23.437Z,14.44
2017-08-20T03:10:23.424Z,14.46
2017-08-20T03:11:23.414Z,14.48
2017-08-20T03:12:23.407Z,14.49
2017-08-20T03:13:23.398Z,14.53
2017-08-20T03:14:23.392Z,14.48
2017-08-20T03:15:23.385Z,14.57
2017-08-20T03:16:23.371Z,14.59
2017-08-20T03:17:23.364Z,14.60
2017-08-20T03:18:23.355Z,14.57
2017-08-20T03:19:23.348Z,14.54
2017-08-20T03:20:23.340Z,14.61
2017-08-20T03:21:23.329Z,14.67
2017-08-20T03:22:23.324Z,14.61
2017-08-20T03:23:23.315Z,14.64
2017-08-20T03:24:23.311Z,14.67
2017-08-20T03:25:23.307Z,14.64
2017-08-20T03:26:23.296Z,14.60
2017-08-20T03:27:23.289Z,14.61
2017-08-20T03:28:23.279Z,14.72
2017-08-20T03:29:23.273Z,14.60
2017-08-20T03:30:23.265Z,14.61
2017-08-20T03:31:23.271Z,14.64
2017-08-20T03:32:23.243Z,14.69
2017-08-20T03:33:23.235Z,14.49
2017-08-20T03:34:23.228Z,14.52
2017-08-20T03:35:23.221Z,14.60
2017-08-20T03:36:23.214Z,14.56
2017-08-20T03:37:23.210Z,14.49
2017-08-20T03:38:23.199Z,14.49
2017-08-20T03:39:23.193Z,14.46
2017-08-20T03:40:23.180Z,14.36
2017-08-20T03:41:23.171Z,14.31
2017-08-20T03:42:23.165Z,14.26
2017-08-20T03:43:23.155Z,14.24
2017-08-20T03:44:23.148Z,14.20
2017-08-20T03:45:23.137Z,14.12
2017-08-20T03:46:23.133Z,14.16
2017-08-20T03:47:23.123Z,14.06
2017-08-20T03:48:23.126Z,13.99
2017-08-20T03:49:23.112Z,14.04
2017-08-20T03:50:23.107Z,13.91
2017-08-20T03:51:23.096Z,13.93
2017-08-20T03:52:23.087Z,13.99
2017-08-20T03:53:23.078Z,13.96
2017-08-20T03:54:23.071Z,13.98
2017-08-20T03:55:23.066Z,13.98
2017-08-20T03:56:23.049Z,14.04
2017-08-20T03:57:23.042Z,13.94
2017-08-20T03:58:23.033Z,14.05
2017-08-20T03:59:23.023Z,14.09
2017-08-20T04:00:23.015Z,14.13
2017-08-20T04:01:23.009Z,14.16
2017-08-20T04:02:22.998Z,14.20
2017-08-20T04:03:22.992Z,14.21
2017-08-20T04:04:22.988Z,14.20
2017-08-20T04:05:22.977Z,14.29
2017-08-20T04:06:22.972Z,14.21
2017-08-20T04:07:22.962Z,14.21
2017-08-20T04:08:22.953Z,14.20
2017-08-20T04:09:22.947Z,14.19
2017-08-20T04:10:22.936Z,14.19
2017-08-20T04:11:22.931Z,14.21
2017-08-20T04:12:22.918Z,14.13
2017-08-20T04:13:22.908Z,14.04
2017-08-20T04:14:22.900Z,14.09
2017-08-20T04:15:22.891Z,14.11
2017-08-20T04:16:22.883Z,14.05
2017-08-20T04:17:22.874Z,14.11
2017-08-20T04:18:22.867Z,14.12
2017-08-20T04:19:22.858Z,14.12
2017-08-20T04:20:22.854Z,14.21
2017-08-20T04:21:22.847Z,14.20
2017-08-20T04:22:22.837Z,14.27
2017-08-20T04:23:22.831Z,14.30
2017-08-20T04:24:22.827Z,14.34
2017-08-20T04:25:22.812Z,14.41
2017-08-20T04:26:22.805Z,14.44
2017-08-20T04:27:22.797Z,14.48
2017-08-20T04:28:22.783Z,14.46
2017-08-20T04:29:22.777Z,14.41
2017-08-20T04:30:22.766Z,14.38
2017-08-20T04:31:22.759Z,14.30
2017-08-20T04:32:22.750Z,14.36
2017-08-20T04:33:22.742Z,14.34
2017-08-20T04:34:22.736Z,14.36
2017-08-20T04:35:22.727Z,14.29
2017-08-20T04:36:22.722Z,14.31
2017-08-20T04:37:22.711Z,14.23
2017-08-20T04:38:22.707Z,14.24
2017-08-20T04:39:22.696Z,14.17
2017-08-20T04:40:22.684Z,14.21
2017-08-20T04:41:22.675Z,14.26
2017-08-20T04:42:22.670Z,14.27
2017-08-20T04:43:22.658Z,14.27
2017-08-20T04:44:22.654Z,14.34
2017-08-20T04:45:22.649Z,14.36
2017-08-20T04:46:22.641Z,14.39
2017-08-20T04:47:22.633Z,14.38
2017-08-20T04:48:22.621Z,14.46
2017-08-20T04:49:22.615Z,14.56
2017-08-20T04:50:22.605Z,14.67
2017-08-20T04:51:22.598Z,14.67
2017-08-20T04:52:22.585Z,14.75
2017-08-20T04:53:22.575Z,14.97
2017-08-20T04:54:22.570Z,15.13
2017-08-20T04:55:22.563Z,15.18
2017-08-20T04:56:22.551Z,15.19
2017-08-20T04:57:22.545Z,15.15
2017-08-20T04:58:22.535Z,15.31
2017-08-20T04:59:22.527Z,15.46
2017-08-20T05:00:22.523Z,15.51
2017-08-20T05:01:22.514Z,15.52
2017-08-20T05:02:22.509Z,15.52
2017-08-20T05:03:22.498Z,15.56
2017-08-20T05:04:22.492Z,15.62
2017-08-20T05:05:22.482Z,15.60
2017-08-20T05:06:22.476Z,15.68
2017-08-20T05:07:22.466Z,15.59
2017-08-20T05:08:22.455Z,15.64
2017-08-20T05:09:22.447Z,15.55
2017-08-20T05:10:22.438Z,15.56
2017-08-20T05:11:22.431Z,15.53
2017-08-20T05:12:22.423Z,15.66
2017-08-20T05:13:22.413Z,15.71
2017-08-20T05:14:22.408Z,15.73
2017-08-20T05:15:22.397Z,15.80
2017-08-20T05:16:22.394Z,15.93
2017-08-20T05:17:22.388Z,15.93
2017-08-20T05:18:22.379Z,16.06
2017-08-20T05:19:22.373Z,15.96
2017-08-20T05:20:22.367Z,15.93
2017-08-20T05:21:22.358Z,15.98
2017-08-20T05:22:22.347Z,15.81
2017-08-20T05:23:22.343Z,15.84
2017-08-20T05:24:22.330Z,15.84
2017-08-20T05:25:22.321Z,15.86
2017-08-20T05:26:22.314Z,15.84
2017-08-20T05:27:22.304Z,15.76
2017-08-20T05:28:22.297Z,15.74
2017-08-20T05:29:22.290Z,15.89
2017-08-20T05:30:22.282Z,15.85
2017-08-20T05:31:22.276Z,16.01
2017-08-20T05:32:22.272Z,15.98
2017-08-20T05:33:22.263Z,15.84
2017-08-20T05:34:22.256Z,16.10
2017-08-20T05:35:22.248Z,15.98
2017-08-20T05:36:22.242Z,16.03
2017-08-20T05:37:22.231Z,15.93
2017-08-20T05:38:22.233Z,16.01
2017-08-20T05:39:22.220Z,16.06
2017-08-20T05:40:22.203Z,16.25
2017-08-20T05:41:22.200Z,16.32
2017-08-20T05:42:22.190Z,16.65
2017-08-20T05:43:22.185Z,16.80
2017-08-20T05:44:22.180Z,17.03
2017-08-20T05:45:22.171Z,17.22
2017-08-20T05:46:22.166Z,17.12
2017-08-20T05:47:22.156Z,17.03
2017-08-20T05:48:22.145Z,17.05
2017-08-20T05:49:22.139Z,17.18
2017-08-20T05:50:22.130Z,17.03
2017-08-20T05:51:22.124Z,16.82
2017-08-20T05:52:22.115Z,16.78
2017-08-20T05:53:22.110Z,16.82
2017-08-20T05:54:22.101Z,16.63
2017-08-20T05:55:22.095Z,16.51
2017-08-20T05:56:22.092Z,16.52
2017-08-20T05:57:22.083Z,16.60
2017-08-20T05:58:22.078Z,16.72
2017-08-20T05:59:22.068Z,16.88
2017-08-20T06:00:22.061Z,17.17
2017-08-20T06:01:22.056Z,17.54
2017-08-20T06:02:22.052Z,17.71
2017-08-20T06:03:22.043Z,17.76
2017-08-20T06:04:22.029Z,17.73
2017-08-20T06:05:22.024Z,17.86
2017-08-20T06:06:22.016Z,17.83
2017-08-20T06:07:22.007Z,17.55
2017-08-20T06:08:22.002Z,17.25
2017-08-20T06:09:21.994Z,17.02
2017-08-20T06:10:21.993Z,16.82
2017-08-20T06:11:21.980Z,16.75
2017-08-20T06:12:21.976Z,16.60
2017-08-20T06:13:21.972Z,16.57
2017-08-20T06:14:21.964Z,16.48
2017-08-20T06:15:21.960Z,16.52
2017-08-20T06:16:21.952Z,16.48
2017-08-20T06:17:21.942Z,16.45
2017-08-20T06:18:21.939Z,16.66
2017-08-20T06:19:21.930Z,16.60
2017-08-20T06:20:21.916Z,16.77
2017-08-20T06:21:21.914Z,16.62
2017-08-20T06:22:21.905Z,16.65
2017-08-20T06:23:21.899Z,16.81
2017-08-20T06:24:21.889Z,16.87
2017-08-20T06:25:21.885Z,17.10
2017-08-20T06:26:21.876Z,17.20
2017-08-20T06:27:21.872Z,17.57
2017-08-20T06:28:21.867Z,17.77
2017-08-20T06:29:21.860Z,17.98
2017-08-20T06:30:21.854Z,18.04
2017-08-20T06:31:21.846Z,18.02
2017-08-20T06:32:21.838Z,17.80
2017-08-20T06:33:21.834Z,17.80
2017-08-20T06:34:21.825Z,17.76
2017-08-20T06:35:21.821Z,17.60
2017-08-20T06:36:21.810Z,17.55
2017-08-20T06:37:21.801Z,17.51
2017-08-20T06:38:21.795Z,17.57
2017-08-20T06:39:21.788Z,17.63
2017-08-20T06:40:21.783Z,17.81
2017-08-20T06:41:21.774Z,18.09
2017-08-20T06:42:21.767Z,18.17
2017-08-20T06:43:21.761Z,18.39
2017-08-20T06:44:21.758Z,18.49
2017-08-20T06:45:21.753Z,19.15
2017-08-20T06:46:21.747Z,20.63
2017-08-20T06:47:21.742Z,21.68
2017-08-20T06:48:21.730Z,24.64
2017-08-20T06:49:21.722Z,28.03
2017-08-20T06:50:21.717Z,30.42
2017-08-20T06:51:21.711Z,30.72
2017-08-20T06:52:21.708Z,28.09
2017-08-20T06:53:21.705Z,26.36
2017-08-20T06:54:21.698Z,24.86
2017-08-20T06:55:21.695Z,24.02
2017-08-20T06:56:21.689Z,23.32
2017-08-20T06:57:21.686Z,22.42
2017-08-20T06:58:21.679Z,22.19
2017-08-20T06:59:21.678Z,22.26
2017-08-20T07:00:21.669Z,22.26
2017-08-20T07:01:21.663Z,21.91
2017-08-20T07:02:21.663Z,21.73
2017-08-20T07:03:21.656Z,21.61
2017-08-20T07:04:21.651Z,21.58
2017-08-20T07:05:21.653Z,21.43
2017-08-20T07:06:21.644Z,21.33
2017-08-20T07:07:21.646Z,21.24
2017-08-20T07:08:21.642Z,21.22
2017-08-20T07:09:21.639Z,21.43
2017-08-20T07:10:21.635Z,21.63
2017-08-20T07:11:21.628Z,21.89
2017-08-20T07:12:21.626Z,22.17
2017-08-20T07:13:21.635Z,22.48
2017-08-20T07:14:21.618Z,22.86
2017-08-20T07:15:21.613Z,23.21
2017-08-20T07:16:21.604Z,23.29
2017-08-20T07:17:21.603Z,23.49
2017-08-20T07:18:21.597Z,24.00
2017-08-20T07:19:21.596Z,23.90
2017-08-20T07:20:21.591Z,24.04
2017-08-20T07:21:21.587Z,24.15
2017-08-20T07:22:21.585Z,24.42
2017-08-20T07:23:21.580Z,24.63
2017-08-20T07:24:21.579Z,24.82
2017-08-20T07:25:21.579Z,25.27
2017-08-20T07:26:21.573Z,25.23
2017-08-20T07:27:21.572Z,25.16
2017-08-20T07:28:21.566Z,25.05
2017-08-20T07:29:21.567Z,25.19
2017-08-20T07:30:21.561Z,25.71
2017-08-20T07:31:21.561Z,26.23
2017-08-20T07:32:21.553Z,26.61
2017-08-20T07:33:21.549Z,26.75
2017-08-20T07:34:21.549Z,26.39
2017-08-20T07:35:21.544Z,26.69
2017-08-20T07:36:21.542Z,26.61
2017-08-20T07:37:21.540Z,26.41
2017-08-20T07:38:21.537Z,27.52
2017-08-20T07:39:21.537Z,27.25
2017-08-20T07:40:21.538Z,27.33
2017-08-20T07:41:21.534Z,27.52
2017-08-20T07:42:21.534Z,27.46
2017-08-20T07:43:21.531Z,28.21
2017-08-20T07:44:21.530Z,28.74
2017-08-20T07:45:21.527Z,28.82
2017-08-20T07:46:21.529Z,29.02
2017-08-20T07:47:21.526Z,28.88
2017-08-20T07:48:21.519Z,29.41
2017-08-20T07:49:21.521Z,30.30
2017-08-20T07:50:21.517Z,33.21
2017-08-20T07:51:21.519Z,32.05
2017-08-20T07:52:21.541Z,31.52
2017-08-20T07:53:21.520Z,32.31
2017-08-20T07:54:21.522Z,37.05
2017-08-20T07:55:21.520Z,40.78
2017-08-20T07:56:21.514Z,43.70
2017-08-20T07:57:21.520Z,44.61
2017-08-20T07:58:21.516Z,39.85
2017-08-20T07:59:21.520Z,37.27
2017-08-20T08:00:21.518Z,36.27
2017-08-20T08:01:21.522Z,35.22
2017-08-20T08:02:21.523Z,34.16
2017-08-20T08:03:21.528Z,33.26
2017-08-20T08:04:21.534Z,33.41
2017-08-20T08:05:21.535Z,33.17
2017-08-20T08:06:21.539Z,32.22
2017-08-20T08:07:21.542Z,31.74
2017-08-20T08:08:21.543Z,31.75
2017-08-20T08:09:21.548Z,32.13
2017-08-20T08:10:21.548Z,32.54
2017-08-20T08:11:21.554Z,32.50
2017-08-20T08:12:21.552Z,32.56
2017-08-20T08:13:21.553Z,32.56
2017-08-20T08:14:21.557Z,31.53
2017-08-20T08:15:21.560Z,31.05
2017-08-20T08:16:21.563Z,31.04
2017-08-20T08:17:21.569Z,31.05
2017-08-20T08:18:21.569Z,31.03
2017-08-20T08:19:21.571Z,30.81
2017-08-20T08:20:21.577Z,30.26
2017-08-20T08:21:21.580Z,29.44
2017-08-20T08:22:21.582Z,29.37
2017-08-20T08:23:21.587Z,29.47
2017-08-20T08:24:21.587Z,29.58
2017-08-20T08:25:21.589Z,29.64
2017-08-20T08:26:21.593Z,30.01
2017-08-20T08:27:21.599Z,30.01
2017-08-20T08:28:21.590Z,30.01
2017-08-20T08:29:21.595Z,29.17
2017-08-20T08:30:21.596Z,29.37
2017-08-20T08:31:21.600Z,29.42
2017-08-20T08:32:21.598Z,29.79
2017-08-20T08:33:21.603Z,30.16
2017-08-20T08:34:21.602Z,30.78
2017-08-20T08:35:21.608Z,31.56
2017-08-20T08:36:21.613Z,32.51
2017-08-20T08:37:21.613Z,32.84
2017-08-20T08:38:21.617Z,31.62
2017-08-20T08:39:21.618Z,31.56
2017-08-20T08:40:21.618Z,31.69
2017-08-20T08:41:21.624Z,31.56
2017-08-20T08:42:21.622Z,31.67
2017-08-20T08:43:21.627Z,31.67
2017-08-20T08:44:21.624Z,31.53
2017-08-20T08:45:21.625Z,32.17
2017-08-20T08:46:21.631Z,32.47
2017-08-20T08:47:21.630Z,33.05
2017-08-20T08:48:21.634Z,35.05
2017-08-20T08:49:21.634Z,34.48
2017-08-20T08:50:21.640Z,37.15
2017-08-20T08:51:21.641Z,36.44
2017-08-20T08:52:21.647Z,35.95
2017-08-20T08:53:21.652Z,37.69
2017-08-20T08:54:21.653Z,37.50
2017-08-20T08:55:21.659Z,36.72
2017-08-20T08:56:21.659Z,35.42
2017-08-20T08:57:21.669Z,35.98
2017-08-20T08:58:21.668Z,36.08
2017-08-20T08:59:21.673Z,36.34
2017-08-20T09:00:21.673Z,35.89
2017-08-20T09:01:21.676Z,36.25
2017-08-20T09:02:21.681Z,36.37
2017-08-20T09:03:21.685Z,36.65
2017-08-20T09:04:21.691Z,36.28
2017-08-20T09:05:21.692Z,35.98
2017-08-20T09:06:21.700Z,37.75
2017-08-20T09:07:21.703Z,39.00
2017-08-20T09:08:21.711Z,40.42
2017-08-20T09:09:21.720Z,42.92
2017-08-20T09:10:21.722Z,44.51
2017-08-20T09:11:21.730Z,46.08
2017-08-20T09:12:21.736Z,46.55
2017-08-20T09:13:21.753Z,45.75
2017-08-20T09:14:21.757Z,47.29
2017-08-20T09:15:21.993Z,47.95
2017-08-20T09:16:22.118Z,46.83
2017-08-20T09:17:21.813Z,48.84
2017-08-20T09:18:21.803Z,49.21
2017-08-20T09:19:21.784Z,48.51
2017-08-20T09:20:21.792Z,45.50
2017-08-20T09:21:21.803Z,45.15
2017-08-20T09:22:21.811Z,44.92
2017-08-20T09:23:21.824Z,46.29
2017-08-20T09:24:21.839Z,45.48
2017-08-20T09:25:21.848Z,44.61
2017-08-20T09:26:21.861Z,44.27
2017-08-20T09:27:21.873Z,44.51
2017-08-20T09:28:21.881Z,44.06
2017-08-20T09:29:21.893Z,44.03
2017-08-20T09:30:21.903Z,45.38
2017-08-20T09:31:21.917Z,45.60
2017-08-20T09:32:21.924Z,46.49
2017-08-20T09:33:21.934Z,46.84
2017-08-20T09:34:21.948Z,47.69
2017-08-20T09:35:21.957Z,47.53
2017-08-20T09:36:21.969Z,46.79
2017-08-20T09:37:21.983Z,45.83
2017-08-20T09:38:21.994Z,45.24
2017-08-20T09:39:22.005Z,44.61
2017-08-20T09:40:22.020Z,44.56
2017-08-20T09:41:22.034Z,43.97
2017-08-20T09:42:22.044Z,44.24
2017-08-20T09:43:22.060Z,44.18
2017-08-20T09:44:22.070Z,43.93
2017-08-20T09:45:22.081Z,44.76
2017-08-20T09:46:22.095Z,43.79
2017-08-20T09:47:22.107Z,44.54
2017-08-20T09:48:22.111Z,44.66
2017-08-20T09:49:22.125Z,44.44
2017-08-20T09:50:22.137Z,42.71
2017-08-20T09:51:22.150Z,42.67
2017-08-20T09:52:22.160Z,40.45
2017-08-20T09:53:22.173Z,39.35
2017-08-20T09:54:22.184Z,40.94
2017-08-20T09:55:22.197Z,39.99
2017-08-20T09:56:22.211Z,41.67
2017-08-20T09:57:22.221Z,43.70
2017-08-20T09:58:22.234Z,43.06
2017-08-20T09:59:22.253Z,41.13
2017-08-20T10:00:22.250Z,38.87
2017-08-20T10:01:22.263Z,38.95
2017-08-20T10:02:22.270Z,37.80
2017-08-20T10:03:22.285Z,37.30
2017-08-20T10:04:22.298Z,35.68
2017-08-20T10:05:22.306Z,37.46
2017-08-20T10:06:22.318Z,35.93
2017-08-20T10:07:22.328Z,34.88
2017-08-20T10:08:22.337Z,34.61
2017-08-20T10:09:22.344Z,39.36
2017-08-20T10:10:22.355Z,42.71
2017-08-20T10:11:22.364Z,45.03
2017-08-20T10:12:22.370Z,46.70
2017-08-20T10:13:22.377Z,46.84
2017-08-20T10:14:22.385Z,46.43
2017-08-20T10:15:22.396Z,44.62
2017-08-20T10:16:22.405Z,40.57
2017-08-20T10:17:22.412Z,39.68
2017-08-20T10:18:22.423Z,37.54
2017-08-20T10:19:22.432Z,40.04
2017-08-20T10:20:22.445Z,42.57
2017-08-20T10:21:22.457Z,44.82
2017-08-20T10:22:22.464Z,47.08
2017-08-20T10:23:22.478Z,47.67
2017-08-20T10:24:22.483Z,47.69
2017-08-20T10:25:22.501Z,47.69
2017-08-20T10:26:22.505Z,48.97
2017-08-20T10:27:22.517Z,49.36
2017-08-20T10:28:22.522Z,50.21
2017-08-20T10:29:22.533Z,45.98
2017-08-20T10:30:22.546Z,46.31
2017-08-20T10:31:22.554Z,44.67
2017-08-20T10:32:22.565Z,44.66
2017-08-20T10:33:22.579Z,46.43
2017-08-20T10:34:22.589Z,47.78
2017-08-20T10:35:22.603Z,48.94
2017-08-20T10:36:22.619Z,47.21
2017-08-20T10:37:22.627Z,44.47
2017-08-20T10:38:22.643Z,45.46
2017-08-20T10:39:22.653Z,44.12
2017-08-20T10:40:22.666Z,46.23
2017-08-20T10:41:22.678Z,45.45
2017-08-20T10:42:22.691Z,45.00
2017-08-20T10:43:22.704Z,43.43
2017-08-20T10:44:22.708Z,39.50
2017-08-20T10:45:22.722Z,43.02
2017-08-20T10:46:22.733Z,41.88
2017-08-20T10:47:22.746Z,42.31
2017-08-20T10:48:22.757Z,44.18
2017-08-20T10:49:22.766Z,44.42
2017-08-20T10:50:22.780Z,43.49
2017-08-20T10:51:23.090Z,46.50
2017-08-20T10:52:22.804Z,47.10
2017-08-20T10:53:22.818Z,48.29
2017-08-20T10:54:22.828Z,49.36
2017-08-20T10:55:22.841Z,49.81
2017-08-20T10:56:22.850Z,48.69
2017-08-20T10:57:22.864Z,46.40
2017-08-20T10:58:22.874Z,45.34
2017-08-20T10:59:22.889Z,47.31
2017-08-20T11:00:22.895Z,46.55
2017-08-20T11:01:22.905Z,47.29
2017-08-20T11:02:22.919Z,45.75
2017-08-20T11:03:22.930Z,43.89
2017-08-20T11:04:22.945Z,42.08
2017-08-20T11:05:22.960Z,41.31
2017-08-20T11:06:22.972Z,39.13
2017-08-20T11:07:22.983Z,37.72
2017-08-20T11:08:22.990Z,36.56
2017-08-20T11:09:23.001Z,35.83
2017-08-20T11:10:23.013Z,35.92
2017-08-20T11:11:23.022Z,37.45
2017-08-20T11:12:23.033Z,38.43
2017-08-20T11:13:23.042Z,41.12
2017-08-20T11:14:23.054Z,43.49
2017-08-20T11:15:23.062Z,45.56
2017-08-20T11:16:23.076Z,47.02
2017-08-20T11:17:23.091Z,46.70
2017-08-20T11:18:23.094Z,47.24
2017-08-20T11:19:23.107Z,48.67
2017-08-20T11:20:23.117Z,49.05
2017-08-20T11:21:23.125Z,49.23
2017-08-20T11:22:23.137Z,49.43
2017-08-20T11:23:23.148Z,48.92
2017-08-20T11:24:23.152Z,48.17
2017-08-20T11:25:23.163Z,47.53
2017-08-20T11:26:23.176Z,46.90
2017-08-20T11:27:23.188Z,48.29
2017-08-20T11:28:23.193Z,48.38
2017-08-20T11:29:23.206Z,44.50
2017-08-20T11:30:23.216Z,40.60
2017-08-20T11:31:23.233Z,37.60
2017-08-20T11:32:23.242Z,37.60
2017-08-20T11:33:23.250Z,37.69
2017-08-20T11:34:23.263Z,37.16
2017-08-20T11:35:23.271Z,35.83
2017-08-20T11:36:23.278Z,34.23
2017-08-20T11:37:23.288Z,33.71
2017-08-20T11:38:23.296Z,33.65
2017-08-20T11:39:23.306Z,33.45
2017-08-20T11:40:23.325Z,33.63
2017-08-20T11:41:23.315Z,33.06
2017-08-20T11:42:23.323Z,32.87
2017-08-20T11:43:23.330Z,32.58
2017-08-20T11:44:23.338Z,32.54
2017-08-20T11:45:23.343Z,32.12
2017-08-20T11:46:23.351Z,31.84
2017-08-20T11:47:23.356Z,31.65
2017-08-20T11:48:23.365Z,31.90
2017-08-20T11:49:23.371Z,32.19
2017-08-20T11:50:23.378Z,32.19
2017-08-20T11:51:23.385Z,31.94
2017-08-20T11:52:23.390Z,32.44
2017-08-20T11:53:23.393Z,32.80
2017-08-20T11:54:23.401Z,32.88
2017-08-20T11:55:23.403Z,33.06
2017-08-20T11:56:23.404Z,32.41
2017-08-20T11:57:23.411Z,31.92
2017-08-20T11:58:23.413Z,31.52
2017-08-20T11:59:23.421Z,31.25
2017-08-20T12:00:23.421Z,30.79
2017-08-20T12:01:23.428Z,30.79
2017-08-20T12:02:23.431Z,31.10
2017-08-20T12:03:23.441Z,30.94
2017-08-20T12:04:23.445Z,31.52
2017-08-20T12:05:23.447Z,31.71
2017-08-20T12:06:23.452Z,32.17
2017-08-20T12:07:23.459Z,32.17
2017-08-20T12:08:23.453Z,31.79
2017-08-20T12:09:23.462Z,30.63
2017-08-20T12:10:23.460Z,30.36
2017-08-20T12:11:23.468Z,29.82
2017-08-20T12:12:23.473Z,28.80
2017-08-20T12:13:23.476Z,28.32
2017-08-20T12:14:23.481Z,27.86
2017-08-20T12:15:23.483Z,27.35
2017-08-20T12:16:23.486Z,27.50
2017-08-20T12:17:23.487Z,27.61
2017-08-20T12:18:23.493Z,27.86
2017-08-20T12:19:23.494Z,28.06
2017-08-20T12:20:23.495Z,28.33
2017-08-20T12:21:23.495Z,28.38
2017-08-20T12:22:23.497Z,28.64
2017-08-20T12:23:23.504Z,28.76
2017-08-20T12:24:23.510Z,29.00
2017-08-20T12:25:23.503Z,29.05
2017-08-20T12:26:23.507Z,29.29
2017-08-20T12:27:23.507Z,29.35
2017-08-20T12:28:23.512Z,29.33
2017-08-20T12:29:23.516Z,29.48
2017-08-20T12:30:23.516Z,29.67
2017-08-20T12:31:23.527Z,29.74
2017-08-20T12:32:23.526Z,29.48
2017-08-20T12:33:23.523Z,29.54
2017-08-20T12:34:23.528Z,29.26
2017-08-20T12:35:23.527Z,29.37
2017-08-20T12:36:23.524Z,29.48
2017-08-20T12:37:23.524Z,29.79
2017-08-20T12:38:23.532Z,29.91
2017-08-20T12:39:23.527Z,30.00
2017-08-20T12:40:23.529Z,29.91
2017-08-20T12:41:23.534Z,29.42
2017-08-20T12:42:23.540Z,29.52
2017-08-20T12:43:23.537Z,29.33
2017-08-20T12:44:23.541Z,28.95
2017-08-20T12:45:23.541Z,28.83
2017-08-20T12:46:23.546Z,28.76
2017-08-20T12:47:23.547Z,28.97
2017-08-20T12:48:23.557Z,29.11
2017-08-20T12:49:23.548Z,29.30
2017-08-20T12:50:23.552Z,29.39
2017-08-20T12:51:23.551Z,29.26
2017-08-20T12:52:23.554Z,28.85